sensor_id;sensor_type;location;lat;lon;timestamp;pressure;altitude;pressure_sealevel;temperature;humidity
57086;BME280;42964;42.910;23.792;2023-06-26T00:01:35;97385.00;;;19.55;100.00
57086;BME280;42964;42.910;23.792;2023-06-26T00:06:33;97379.50;;;19.61;100.00
57086;BME280;42964;42.910;23.792;2023-06-26T00:11:32;97365.91;;;19.50;100.00
57086;BME280;42964;42.910;23.792;2023-06-26T00:16:32;97382.94;;;19.63;100.00
57086;BME280;42964;42.910;23.792;2023-06-26T00:21:31;97378.03;;;19.54;100.00
57086;BME280;42964;42.910;23.792;2023-06-26T00:26:30;97368.59;;;19.48;100.00
57086;BME280;42964;42.910;23.792;2023-06-26T00:31:29;97382.09;;;19.40;100.00
57086;BME280;42964;42.910;23.792;2023-06-26T00:36:27;97377.22;;;19.31;100.00
57086;BME280;42964;42.910;23.792;2023-06-26T00:41:26;97371.16;;;19.29;100.00
57086;BME280;42964;42.910;23.792;2023-06-26T00:46:25;97375.25;;;19.36;100.00
57086;BME280;42964;42.910;23.792;2023-06-26T00:51:26;97368.16;;;19.38;100.00
57086;BME280;42964;42.910;23.792;2023-06-26T00:56:26;97371.22;;;19.48;100.00
57086;BME280;42964;42.910;23.792;2023-06-26T01:01:26;97378.28;;;19.48;100.00
57086;BME280;42964;42.910;23.792;2023-06-26T01:06:25;97373.78;;;19.29;100.00
57086;BME280;42964;42.910;23.792;2023-06-26T01:11:26;97368.41;;;19.12;100.00
57086;BME280;42964;42.910;23.792;2023-06-26T01:16:26;97356.56;;;19.22;100.00
57086;BME280;42964;42.910;23.792;2023-06-26T01:21:27;97362.34;;;19.10;100.00
57086;BME280;42964;42.910;23.792;2023-06-26T01:26:32;97365.97;;;19.07;100.00
57086;BME280;42964;42.910;23.792;2023-06-26T01:31:34;97364.72;;;19.16;100.00
57086;BME280;42964;42.910;23.792;2023-06-26T01:36:34;97359.72;;;19.10;100.00
57086;BME280;42964;42.910;23.792;2023-06-26T01:41:33;97356.94;;;19.13;100.00
57086;BME280;42964;42.910;23.792;2023-06-26T01:46:56;97357.56;;;19.19;100.00
57086;BME280;42964;42.910;23.792;2023-06-26T01:57:20;97347.78;;;19.23;100.00
57086;BME280;42964;42.910;23.792;2023-06-26T02:02:23;97349.59;;;19.21;100.00
57086;BME280;42964;42.910;23.792;2023-06-26T02:07:22;97342.50;;;19.23;100.00
57086;BME280;42964;42.910;23.792;2023-06-26T02:12:21;97343.06;;;19.30;100.00
57086;BME280;42964;42.910;23.792;2023-06-26T02:17:20;97300.31;;;19.04;100.00
57086;BME280;42964;42.910;23.792;2023-06-26T02:22:19;97317.97;;;19.02;100.00
57086;BME280;42964;42.910;23.792;2023-06-26T02:27:19;97324.34;;;19.17;100.00
57086;BME280;42964;42.910;23.792;2023-06-26T02:32:18;97328.16;;;19.30;100.00
57086;BME280;42964;42.910;23.792;2023-06-26T02:37:17;97324.75;;;19.28;100.00
57086;BME280;42964;42.910;23.792;2023-06-26T02:42:16;97328.28;;;19.27;100.00
57086;BME280;42964;42.910;23.792;2023-06-26T02:47:15;97325.59;;;19.29;100.00
57086;BME280;42964;42.910;23.792;2023-06-26T02:52:14;97299.94;;;19.13;100.00
57086;BME280;42964;42.910;23.792;2023-06-26T02:57:13;97330.41;;;19.19;100.00
57086;BME280;42964;42.910;23.792;2023-06-26T03:02:13;97331.44;;;19.15;100.00
57086;BME280;42964;42.910;23.792;2023-06-26T03:07:12;97334.44;;;19.06;100.00
57086;BME280;42964;42.910;23.792;2023-06-26T03:12:11;97331.31;;;18.97;100.00
57086;BME280;42964;42.910;23.792;2023-06-26T03:17:10;97333.94;;;18.97;100.00
57086;BME280;42964;42.910;23.792;2023-06-26T03:22:09;97339.50;;;18.90;100.00
57086;BME280;42964;42.910;23.792;2023-06-26T03:27:08;97346.78;;;18.83;100.00
57086;BME280;42964;42.910;23.792;2023-06-26T03:32:08;97345.34;;;18.96;100.00
57086;BME280;42964;42.910;23.792;2023-06-26T03:37:07;97296.63;;;18.66;100.00
57086;BME280;42964;42.910;23.792;2023-06-26T03:42:07;97348.16;;;18.92;100.00
57086;BME280;42964;42.910;23.792;2023-06-26T03:47:06;97348.91;;;18.95;100.00
57086;BME280;42964;42.910;23.792;2023-06-26T03:52:05;97346.94;;;19.00;100.00
57086;BME280;42964;42.910;23.792;2023-06-26T03:57:04;97347.56;;;19.07;100.00
57086;BME280;42964;42.910;23.792;2023-06-26T04:02:03;97347.56;;;19.07;100.00
57086;BME280;42964;42.910;23.792;2023-06-26T04:07:02;97341.44;;;19.07;100.00
57086;BME280;42964;42.910;23.792;2023-06-26T04:12:02;97345.13;;;19.23;100.00
57086;BME280;42964;42.910;23.792;2023-06-26T04:17:01;97343.81;;;19.33;100.00
57086;BME280;42964;42.910;23.792;2023-06-26T04:22:02;97350.13;;;19.50;100.00
57086;BME280;42964;42.910;23.792;2023-06-26T04:27:02;97358.94;;;19.69;100.00
57086;BME280;42964;42.910;23.792;2023-06-26T04:32:02;97360.97;;;19.83;100.00
57086;BME280;42964;42.910;23.792;2023-06-26T04:37:01;97354.44;;;19.92;100.00
57086;BME280;42964;42.910;23.792;2023-06-26T04:42:05;97350.63;;;19.99;99.58
57086;BME280;42964;42.910;23.792;2023-06-26T04:47:05;97353.09;;;20.02;99.13
57086;BME280;42964;42.910;23.792;2023-06-26T04:52:03;97328.19;;;20.09;99.07
57086;BME280;42964;42.910;23.792;2023-06-26T04:57:03;97337.59;;;20.34;97.80
57086;BME280;42964;42.910;23.792;2023-06-26T05:02:02;97362.81;;;20.58;96.96
57086;BME280;42964;42.910;23.792;2023-06-26T05:07:01;97330.72;;;20.50;96.15
57086;BME280;42964;42.910;23.792;2023-06-26T05:12:02;97371.22;;;20.66;95.76
57086;BME280;42964;42.910;23.792;2023-06-26T05:17:01;97368.97;;;20.59;95.75
57086;BME280;42964;42.910;23.792;2023-06-26T05:22:01;97373.09;;;20.64;96.13
57086;BME280;42964;42.910;23.792;2023-06-26T05:27:02;97374.50;;;20.71;95.31
57086;BME280;42964;42.910;23.792;2023-06-26T05:32:02;97371.47;;;20.79;95.04
57086;BME280;42964;42.910;23.792;2023-06-26T05:37:01;97373.22;;;20.98;94.42
57086;BME280;42964;42.910;23.792;2023-06-26T05:42:00;97388.72;;;21.40;93.73
57086;BME280;42964;42.910;23.792;2023-06-26T05:47:00;97384.91;;;21.63;91.10
57086;BME280;42964;42.910;23.792;2023-06-26T05:51:59;97383.81;;;21.85;91.24
57086;BME280;42964;42.910;23.792;2023-06-26T05:56:58;97389.22;;;22.16;90.57
57086;BME280;42964;42.910;23.792;2023-06-26T06:01:58;97388.91;;;22.23;87.98
57086;BME280;42964;42.910;23.792;2023-06-26T06:06:57;97354.03;;;21.99;86.99
57086;BME280;42964;42.910;23.792;2023-06-26T06:11:56;97394.13;;;22.56;85.89
57086;BME280;42964;42.910;23.792;2023-06-26T06:16:54;97389.47;;;22.93;83.88
57086;BME280;42964;42.910;23.792;2023-06-26T06:21:53;97387.69;;;23.23;78.87
57086;BME280;42964;42.910;23.792;2023-06-26T06:26:52;97385.59;;;23.44;77.39
57086;BME280;42964;42.910;23.792;2023-06-26T06:31:51;97385.00;;;23.70;75.43
57086;BME280;42964;42.910;23.792;2023-06-26T06:36:51;97380.19;;;23.91;74.80
57086;BME280;42964;42.910;23.792;2023-06-26T06:41:51;97346.69;;;24.04;73.26
57086;BME280;42964;42.910;23.792;2023-06-26T06:46:50;97371.59;;;24.44;70.00
57086;BME280;42964;42.910;23.792;2023-06-26T06:51:49;97368.91;;;24.59;69.45
57086;BME280;42964;42.910;23.792;2023-06-26T06:56:48;97376.09;;;24.71;66.91
57086;BME280;42964;42.910;23.792;2023-06-26T07:01:47;97369.16;;;24.83;67.10
57086;BME280;42964;42.910;23.792;2023-06-26T07:06:46;97373.69;;;24.81;65.65
57086;BME280;42964;42.910;23.792;2023-06-26T07:11:44;97376.56;;;24.63;66.63
57086;BME280;42964;42.910;23.792;2023-06-26T07:16:44;97379.72;;;24.56;65.93
57086;BME280;42964;42.910;23.792;2023-06-26T07:21:43;97380.38;;;24.59;65.11
57086;BME280;42964;42.910;23.792;2023-06-26T07:26:43;97387.31;;;24.47;66.15
57086;BME280;42964;42.910;23.792;2023-06-26T07:31:42;97381.56;;;24.26;66.21
57086;BME280;42964;42.910;23.792;2023-06-26T07:36:41;97383.59;;;24.07;67.66
57086;BME280;42964;42.910;23.792;2023-06-26T07:41:40;97390.78;;;24.05;68.89
57086;BME280;42964;42.910;23.792;2023-06-26T07:46:39;97390.91;;;24.03;68.34
57086;BME280;42964;42.910;23.792;2023-06-26T07:51:38;97371.78;;;24.13;68.84
57086;BME280;42964;42.910;23.792;2023-06-26T08:01:55;97390.75;;;25.18;63.21
57086;BME280;42964;42.910;23.792;2023-06-26T08:06:56;97396.41;;;25.66;61.57
57086;BME280;42964;42.910;23.792;2023-06-26T08:11:56;97391.66;;;25.84;58.66
57086;BME280;42964;42.910;23.792;2023-06-26T08:16:55;97376.28;;;25.49;58.19
57086;BME280;42964;42.910;23.792;2023-06-26T08:21:54;97379.44;;;25.42;59.18
57086;BME280;42964;42.910;23.792;2023-06-26T08:26:53;97373.16;;;25.70;57.81
57086;BME280;42964;42.910;23.792;2023-06-26T08:31:52;97358.59;;;25.88;57.23
57086;BME280;42964;42.910;23.792;2023-06-26T08:36:51;97371.44;;;26.33;58.01
57086;BME280;42964;42.910;23.792;2023-06-26T08:41:50;97372.94;;;26.74;54.71
57086;BME280;42964;42.910;23.792;2023-06-26T08:46:50;97339.53;;;26.33;53.74
57086;BME280;42964;42.910;23.792;2023-06-26T08:52:00;97385.16;;;26.01;55.03
57086;BME280;42964;42.910;23.792;2023-06-26T08:57:00;97378.59;;;25.41;58.52
57086;BME280;42964;42.910;23.792;2023-06-26T09:02:01;97375.13;;;24.86;60.29
57086;BME280;42964;42.910;23.792;2023-06-26T09:07:01;97367.00;;;24.61;59.98
57086;BME280;42964;42.910;23.792;2023-06-26T09:12:02;97371.53;;;24.87;61.19
57086;BME280;42964;42.910;23.792;2023-06-26T09:17:01;97368.59;;;25.32;59.53
57086;BME280;42964;42.910;23.792;2023-06-26T09:22:00;97371.03;;;25.35;57.90
57086;BME280;42964;42.910;23.792;2023-06-26T09:27:01;97371.97;;;25.87;55.97
57086;BME280;42964;42.910;23.792;2023-06-26T09:32:00;97368.03;;;26.05;53.59
57086;BME280;42964;42.910;23.792;2023-06-26T09:36:59;97363.78;;;25.77;54.76
57086;BME280;42964;42.910;23.792;2023-06-26T09:42:01;97357.41;;;25.67;57.25
57086;BME280;42964;42.910;23.792;2023-06-26T09:47:03;97358.78;;;25.85;56.40
57086;BME280;42964;42.910;23.792;2023-06-26T09:52:03;97359.84;;;25.95;55.06
57086;BME280;42964;42.910;23.792;2023-06-26T09:57:09;97357.50;;;26.16;54.04
57086;BME280;42964;42.910;23.792;2023-06-26T10:02:08;97356.25;;;26.22;51.67
57086;BME280;42964;42.910;23.792;2023-06-26T10:07:13;97362.94;;;26.28;52.47
57086;BME280;42964;42.910;23.792;2023-06-26T10:12:29;97352.28;;;25.64;54.52
57086;BME280;42964;42.910;23.792;2023-06-26T10:17:30;97351.44;;;26.27;53.83
57086;BME280;42964;42.910;23.792;2023-06-26T10:22:33;97352.19;;;25.78;52.58
57086;BME280;42964;42.910;23.792;2023-06-26T10:27:43;97340.81;;;26.02;50.71
57086;BME280;42964;42.910;23.792;2023-06-26T10:32:43;97314.44;;;26.11;50.10
57086;BME280;42964;42.910;23.792;2023-06-26T10:37:46;97327.28;;;26.17;53.00
57086;BME280;42964;42.910;23.792;2023-06-26T10:42:45;97336.34;;;25.64;56.81
57086;BME280;42964;42.910;23.792;2023-06-26T10:47:48;97337.91;;;25.01;57.70
57086;BME280;42964;42.910;23.792;2023-06-26T11:03:39;97300.56;;;26.32;53.96
57086;BME280;42964;42.910;23.792;2023-06-26T11:08:45;97298.28;;;26.75;52.51
57086;BME280;42964;42.910;23.792;2023-06-26T11:13:46;97300.66;;;27.15;49.87
57086;BME280;42964;42.910;23.792;2023-06-26T11:18:45;97295.56;;;27.48;47.99
57086;BME280;42964;42.910;23.792;2023-06-26T11:23:45;97271.00;;;27.67;46.04
57086;BME280;42964;42.910;23.792;2023-06-26T11:28:49;97309.38;;;27.17;47.43
57086;BME280;42964;42.910;23.792;2023-06-26T11:33:48;97307.44;;;26.47;50.46
57086;BME280;42964;42.910;23.792;2023-06-26T11:38:52;97308.19;;;26.49;50.53
57086;BME280;42964;42.910;23.792;2023-06-26T11:43:52;97280.81;;;26.10;53.19
57086;BME280;42964;42.910;23.792;2023-06-26T11:48:51;97313.81;;;26.21;54.98
57086;BME280;42964;42.910;23.792;2023-06-26T11:53:50;97309.16;;;25.86;55.35
57086;BME280;42964;42.910;23.792;2023-06-26T12:04:06;97315.84;;;25.91;55.16
57086;BME280;42964;42.910;23.792;2023-06-26T12:09:09;97316.00;;;26.27;55.71
57086;BME280;42964;42.910;23.792;2023-06-26T12:14:10;97328.50;;;26.50;54.10
57086;BME280;42964;42.910;23.792;2023-06-26T12:19:09;97325.34;;;26.45;53.04
57086;BME280;42964;42.910;23.792;2023-06-26T12:24:12;97319.25;;;26.80;53.27
57086;BME280;42964;42.910;23.792;2023-06-26T12:29:13;97330.94;;;26.90;52.29
57086;BME280;42964;42.910;23.792;2023-06-26T12:34:13;97297.38;;;26.64;53.07
57086;BME280;42964;42.910;23.792;2023-06-26T12:39:20;97327.44;;;27.25;52.92
57086;BME280;42964;42.910;23.792;2023-06-26T12:44:21;97329.38;;;27.58;50.59
57086;BME280;42964;42.910;23.792;2023-06-26T12:49:20;97331.34;;;27.79;49.68
57086;BME280;42964;42.910;23.792;2023-06-26T12:54:27;97326.66;;;27.82;48.86
57086;BME280;42964;42.910;23.792;2023-06-26T12:59:26;97333.31;;;27.99;48.73
57086;BME280;42964;42.910;23.792;2023-06-26T13:04:26;97337.16;;;27.26;49.30
57086;BME280;42964;42.910;23.792;2023-06-26T13:09:25;97332.75;;;26.90;51.65
57086;BME280;42964;42.910;23.792;2023-06-26T13:14:24;97323.84;;;26.78;51.90
57086;BME280;42964;42.910;23.792;2023-06-26T13:19:23;97328.63;;;26.86;51.94
57086;BME280;42964;42.910;23.792;2023-06-26T13:24:22;97339.69;;;27.28;50.55
57086;BME280;42964;42.910;23.792;2023-06-26T13:29:21;97296.19;;;27.16;50.29
57086;BME280;42964;42.910;23.792;2023-06-26T13:34:23;97337.25;;;27.25;50.76
57086;BME280;42964;42.910;23.792;2023-06-26T13:39:22;97340.03;;;27.23;50.52
57086;BME280;42964;42.910;23.792;2023-06-26T13:44:21;97332.47;;;27.06;50.64
57086;BME280;42964;42.910;23.792;2023-06-26T13:49:20;97329.56;;;27.09;52.21
57086;BME280;42964;42.910;23.792;2023-06-26T13:54:19;97318.03;;;27.32;51.39
57086;BME280;42964;42.910;23.792;2023-06-26T13:59:18;97324.31;;;27.89;50.78
57086;BME280;42964;42.910;23.792;2023-06-26T14:04:17;97318.56;;;28.29;49.05
57086;BME280;42964;42.910;23.792;2023-06-26T14:09:16;97310.13;;;28.56;47.54
57086;BME280;42964;42.910;23.792;2023-06-26T14:14:15;97306.22;;;28.60;48.01
57086;BME280;42964;42.910;23.792;2023-06-26T14:19:14;97307.44;;;28.56;48.04
57086;BME280;42964;42.910;23.792;2023-06-26T14:24:13;97300.81;;;28.51;45.76
57086;BME280;42964;42.910;23.792;2023-06-26T14:29:12;97307.50;;;28.34;45.94
57086;BME280;42964;42.910;23.792;2023-06-26T14:34:14;97305.06;;;28.19;46.68
57086;BME280;42964;42.910;23.792;2023-06-26T14:39:13;97285.44;;;27.75;45.67
57086;BME280;42964;42.910;23.792;2023-06-26T14:44:12;97296.56;;;27.58;46.03
57086;BME280;42964;42.910;23.792;2023-06-26T14:49:11;97289.75;;;27.54;47.31
57086;BME280;42964;42.910;23.792;2023-06-26T14:54:10;97298.78;;;27.05;49.04
57086;BME280;42964;42.910;23.792;2023-06-26T14:59:09;97301.88;;;26.87;49.60
57086;BME280;42964;42.910;23.792;2023-06-26T15:04:09;97303.16;;;26.82;50.51
57086;BME280;42964;42.910;23.792;2023-06-26T15:09:08;97312.78;;;26.84;51.82
57086;BME280;42964;42.910;23.792;2023-06-26T15:14:08;97320.25;;;26.66;53.18
57086;BME280;42964;42.910;23.792;2023-06-26T15:19:07;97320.66;;;26.49;55.42
57086;BME280;42964;42.910;23.792;2023-06-26T15:24:07;97316.94;;;26.39;55.00
57086;BME280;42964;42.910;23.792;2023-06-26T15:29:06;97330.00;;;26.42;54.45
57086;BME280;42964;42.910;23.792;2023-06-26T15:34:05;97331.66;;;26.19;54.32
57086;BME280;42964;42.910;23.792;2023-06-26T15:39:04;97274.91;;;25.68;54.71
57086;BME280;42964;42.910;23.792;2023-06-26T15:44:04;97326.56;;;25.90;55.23
57086;BME280;42964;42.910;23.792;2023-06-26T15:49:03;97324.03;;;25.76;55.48
57086;BME280;42964;42.910;23.792;2023-06-26T15:54:02;97331.25;;;25.86;55.87
57086;BME280;42964;42.910;23.792;2023-06-26T15:59:01;97326.25;;;26.07;55.69
57086;BME280;42964;42.910;23.792;2023-06-26T16:04:00;97327.09;;;26.08;54.99
57086;BME280;42964;42.910;23.792;2023-06-26T16:08:59;97330.41;;;26.11;54.72
57086;BME280;42964;42.910;23.792;2023-06-26T16:13:58;97331.25;;;26.12;54.62
57086;BME280;42964;42.910;23.792;2023-06-26T16:18:57;97325.41;;;26.07;55.17
57086;BME280;42964;42.910;23.792;2023-06-26T16:23:56;97328.25;;;26.04;54.95
57086;BME280;42964;42.910;23.792;2023-06-26T16:28:55;97328.38;;;25.89;54.67
57086;BME280;42964;42.910;23.792;2023-06-26T16:33:54;97321.38;;;25.76;55.58
57086;BME280;42964;42.910;23.792;2023-06-26T16:38:53;97317.88;;;25.75;56.18
57086;BME280;42964;42.910;23.792;2023-06-26T16:43:52;97319.34;;;25.79;57.35
57086;BME280;42964;42.910;23.792;2023-06-26T16:48:51;97324.47;;;25.69;58.25
57086;BME280;42964;42.910;23.792;2023-06-26T16:53:55;97322.91;;;25.52;59.40
57086;BME280;42964;42.910;23.792;2023-06-26T16:58:54;97332.78;;;25.25;60.28
57086;BME280;42964;42.910;23.792;2023-06-26T17:03:53;97342.16;;;25.03;61.16
57086;BME280;42964;42.910;23.792;2023-06-26T17:08:53;97352.06;;;24.87;61.55
57086;BME280;42964;42.910;23.792;2023-06-26T17:13:52;97363.25;;;24.78;62.38
57086;BME280;42964;42.910;23.792;2023-06-26T17:18:51;97353.56;;;24.64;63.12
57086;BME280;42964;42.910;23.792;2023-06-26T17:23:50;97362.88;;;24.42;64.17
57086;BME280;42964;42.910;23.792;2023-06-26T17:28:49;97367.84;;;24.20;65.10
57086;BME280;42964;42.910;23.792;2023-06-26T17:33:48;97385.03;;;23.98;66.46
57086;BME280;42964;42.910;23.792;2023-06-26T17:38:47;97369.56;;;23.62;68.01
57086;BME280;42964;42.910;23.792;2023-06-26T17:43:46;97396.50;;;23.54;69.03
57086;BME280;42964;42.910;23.792;2023-06-26T17:48:45;97404.56;;;23.37;69.97
57086;BME280;42964;42.910;23.792;2023-06-26T17:53:44;97402.13;;;23.18;71.12
57086;BME280;42964;42.910;23.792;2023-06-26T17:58:43;97407.53;;;23.00;72.36
57086;BME280;42964;42.910;23.792;2023-06-26T18:03:42;97411.66;;;22.74;73.28
57086;BME280;42964;42.910;23.792;2023-06-26T18:08:41;97418.84;;;22.71;73.98
57086;BME280;42964;42.910;23.792;2023-06-26T18:13:40;97430.72;;;22.64;74.59
57086;BME280;42964;42.910;23.792;2023-06-26T18:18:39;97445.88;;;22.44;75.87
57086;BME280;42964;42.910;23.792;2023-06-26T18:23:38;97451.31;;;22.41;75.17
57086;BME280;42964;42.910;23.792;2023-06-26T18:28:37;97478.78;;;22.38;75.97
57086;BME280;42964;42.910;23.792;2023-06-26T18:33:36;97493.34;;;21.77;75.52
57086;BME280;42964;42.910;23.792;2023-06-26T18:38:36;97499.16;;;21.49;75.72
57086;BME280;42964;42.910;23.792;2023-06-26T18:43:35;97519.53;;;20.90;77.70
57086;BME280;42964;42.910;23.792;2023-06-26T18:48:34;97525.84;;;20.86;78.32
57086;BME280;42964;42.910;23.792;2023-06-26T18:53:33;97547.84;;;21.06;79.05
57086;BME280;42964;42.910;23.792;2023-06-26T18:58:32;97536.72;;;20.99;81.21
57086;BME280;42964;42.910;23.792;2023-06-26T19:03:31;97545.69;;;20.95;83.60
57086;BME280;42964;42.910;23.792;2023-06-26T19:08:30;97540.19;;;20.81;84.81
57086;BME280;42964;42.910;23.792;2023-06-26T19:13:29;97550.66;;;20.63;85.93
57086;BME280;42964;42.910;23.792;2023-06-26T19:18:29;97520.53;;;20.28;86.22
57086;BME280;42964;42.910;23.792;2023-06-26T19:23:28;97551.47;;;20.45;86.13
57086;BME280;42964;42.910;23.792;2023-06-26T19:28:27;97550.59;;;20.44;85.84
57086;BME280;42964;42.910;23.792;2023-06-26T19:33:26;97560.28;;;20.44;86.38
57086;BME280;42964;42.910;23.792;2023-06-26T19:38:26;97565.88;;;20.36;85.50
57086;BME280;42964;42.910;23.792;2023-06-26T19:43:25;97566.16;;;19.87;86.67
57086;BME280;42964;42.910;23.792;2023-06-26T19:48:24;97573.78;;;19.73;87.62
57086;BME280;42964;42.910;23.792;2023-06-26T19:53:25;97528.59;;;19.40;88.89
57086;BME280;42964;42.910;23.792;2023-06-26T19:58:25;97555.53;;;19.69;88.27
57086;BME280;42964;42.910;23.792;2023-06-26T20:03:24;97540.47;;;19.50;87.82
57086;BME280;42964;42.910;23.792;2023-06-26T20:08:23;97554.59;;;19.48;87.80
57086;BME280;42964;42.910;23.792;2023-06-26T20:13:22;97554.41;;;19.52;87.43
57086;BME280;42964;42.910;23.792;2023-06-26T20:18:21;97555.06;;;19.59;86.91
57086;BME280;42964;42.910;23.792;2023-06-26T20:23:21;97558.13;;;19.70;86.38
57086;BME280;42964;42.910;23.792;2023-06-26T20:28:20;97551.63;;;19.57;86.36
57086;BME280;42964;42.910;23.792;2023-06-26T20:33:19;97560.34;;;19.59;85.98
57086;BME280;42964;42.910;23.792;2023-06-26T20:38:18;97562.50;;;19.48;87.40
57086;BME280;42964;42.910;23.792;2023-06-26T20:43:17;97556.94;;;19.33;88.68
57086;BME280;42964;42.910;23.792;2023-06-26T20:48:16;97553.28;;;19.37;88.41
57086;BME280;42964;42.910;23.792;2023-06-26T20:53:15;97555.09;;;19.35;88.39
57086;BME280;42964;42.910;23.792;2023-06-26T20:58:14;97561.41;;;19.31;88.46
57086;BME280;42964;42.910;23.792;2023-06-26T21:03:13;97544.94;;;19.26;88.77
57086;BME280;42964;42.910;23.792;2023-06-26T21:08:12;97548.66;;;19.20;89.19
57086;BME280;42964;42.910;23.792;2023-06-26T21:13:11;97548.91;;;19.14;89.58
57086;BME280;42964;42.910;23.792;2023-06-26T21:18:11;97544.66;;;19.10;90.24
57086;BME280;42964;42.910;23.792;2023-06-26T21:23:10;97537.88;;;19.05;90.83
57086;BME280;42964;42.910;23.792;2023-06-26T21:28:09;97539.72;;;19.02;91.17
57086;BME280;42964;42.910;23.792;2023-06-26T21:33:08;97528.56;;;18.96;91.44
57086;BME280;42964;42.910;23.792;2023-06-26T21:38:06;97529.78;;;18.87;91.40
57086;BME280;42964;42.910;23.792;2023-06-26T21:43:05;97515.50;;;18.71;92.20
57086;BME280;42964;42.910;23.792;2023-06-26T21:48:05;97527.03;;;18.67;93.05
57086;BME280;42964;42.910;23.792;2023-06-26T21:53:04;97474.00;;;18.32;94.61
57086;BME280;42964;42.910;23.792;2023-06-26T21:58:04;97517.91;;;18.52;95.51
57086;BME280;42964;42.910;23.792;2023-06-26T22:03:03;97527.16;;;18.38;95.90
57086;BME280;42964;42.910;23.792;2023-06-26T22:08:03;97523.84;;;18.33;96.21
57086;BME280;42964;42.910;23.792;2023-06-26T22:13:02;97522.25;;;18.29;96.05
57086;BME280;42964;42.910;23.792;2023-06-26T22:18:02;97521.44;;;18.27;95.89
57086;BME280;42964;42.910;23.792;2023-06-26T22:23:01;97519.88;;;18.22;96.31
57086;BME280;42964;42.910;23.792;2023-06-26T22:28:00;97526.94;;;18.19;96.44
57086;BME280;42964;42.910;23.792;2023-06-26T22:32:59;97520.16;;;18.14;96.35
57086;BME280;42964;42.910;23.792;2023-06-26T22:37:58;97514.13;;;18.10;96.38
57086;BME280;42964;42.910;23.792;2023-06-26T22:42:57;97509.56;;;17.92;97.82
57086;BME280;42964;42.910;23.792;2023-06-26T22:47:57;97514.53;;;18.00;96.77
57086;BME280;42964;42.910;23.792;2023-06-26T22:52:56;97521.75;;;17.93;97.00
57086;BME280;42964;42.910;23.792;2023-06-26T22:57:56;97525.81;;;17.76;97.41
57086;BME280;42964;42.910;23.792;2023-06-26T23:02:55;97531.22;;;17.70;97.63
57086;BME280;42964;42.910;23.792;2023-06-26T23:07:54;97531.84;;;17.52;98.67
57086;BME280;42964;42.910;23.792;2023-06-26T23:12:54;97526.53;;;17.53;98.18
57086;BME280;42964;42.910;23.792;2023-06-26T23:17:53;97520.72;;;17.44;97.97
57086;BME280;42964;42.910;23.792;2023-06-26T23:22:52;97517.91;;;17.50;98.13
57086;BME280;42964;42.910;23.792;2023-06-26T23:27:51;97519.66;;;17.49;97.92
57086;BME280;42964;42.910;23.792;2023-06-26T23:32:50;97521.59;;;17.44;98.31
57086;BME280;42964;42.910;23.792;2023-06-26T23:37:49;97517.81;;;17.26;99.58
57086;BME280;42964;42.910;23.792;2023-06-26T23:42:52;97517.81;;;17.26;99.14
57086;BME280;42964;42.910;23.792;2023-06-26T23:47:51;97521.41;;;17.22;99.29
57086;BME280;42964;42.910;23.792;2023-06-26T23:52:51;97528.56;;;17.17;99.17
57086;BME280;42964;42.910;23.792;2023-06-26T23:57:50;97526.31;;;17.05;99.97
